sensor_id;sensor_type;location;lat;lon;timestamp;P1;durP1;ratioP1;P2;durP2;ratioP2
17251;SDS011;8742;51.716;8.790;2024-03-08T00:01:33;39.63;;;20.30;;
17251;SDS011;8742;51.716;8.790;2024-03-08T00:04:00;37.47;;;19.30;;
17251;SDS011;8742;51.716;8.790;2024-03-08T00:06:28;42.57;;;20.57;;
17251;SDS011;8742;51.716;8.790;2024-03-08T00:08:55;36.67;;;19.13;;
17251;SDS011;8742;51.716;8.790;2024-03-08T00:11:22;40.80;;;19.77;;
17251;SDS011;8742;51.716;8.790;2024-03-08T00:13:51;40.27;;;20.10;;
17251;SDS011;8742;51.716;8.790;2024-03-08T00:16:18;39.13;;;19.30;;
17251;SDS011;8742;51.716;8.790;2024-03-08T00:18:45;38.57;;;19.43;;
17251;SDS011;8742;51.716;8.790;2024-03-08T00:21:14;41.77;;;19.57;;
17251;SDS011;8742;51.716;8.790;2024-03-08T00:23:42;38.23;;;19.27;;
17251;SDS011;8742;51.716;8.790;2024-03-08T00:26:09;42.90;;;20.60;;
17251;SDS011;8742;51.716;8.790;2024-03-08T00:28:36;39.47;;;19.23;;
17251;SDS011;8742;51.716;8.790;2024-03-08T00:31:03;46.73;;;20.40;;
17251;SDS011;8742;51.716;8.790;2024-03-08T00:33:32;40.43;;;20.20;;
17251;SDS011;8742;51.716;8.790;2024-03-08T00:35:58;42.07;;;19.80;;
17251;SDS011;8742;51.716;8.790;2024-03-08T00:38:25;40.30;;;19.23;;
17251;SDS011;8742;51.716;8.790;2024-03-08T00:40:53;39.40;;;19.27;;
17251;SDS011;8742;51.716;8.790;2024-03-08T00:43:21;39.93;;;19.67;;
17251;SDS011;8742;51.716;8.790;2024-03-08T00:45:47;42.80;;;19.60;;
17251;SDS011;8742;51.716;8.790;2024-03-08T00:48:14;39.13;;;19.63;;
17251;SDS011;8742;51.716;8.790;2024-03-08T00:50:41;42.90;;;20.03;;
17251;SDS011;8742;51.716;8.790;2024-03-08T00:53:10;41.77;;;20.07;;
17251;SDS011;8742;51.716;8.790;2024-03-08T00:55:37;39.43;;;20.03;;
17251;SDS011;8742;51.716;8.790;2024-03-08T00:58:05;38.33;;;19.73;;
17251;SDS011;8742;51.716;8.790;2024-03-08T01:00:33;37.37;;;19.10;;
17251;SDS011;8742;51.716;8.790;2024-03-08T01:03:00;42.73;;;19.83;;
17251;SDS011;8742;51.716;8.790;2024-03-08T01:05:28;38.70;;;19.70;;
17251;SDS011;8742;51.716;8.790;2024-03-08T01:07:55;41.47;;;19.30;;
17251;SDS011;8742;51.716;8.790;2024-03-08T01:10:22;42.13;;;19.80;;
17251;SDS011;8742;51.716;8.790;2024-03-08T01:12:48;42.30;;;19.63;;
17251;SDS011;8742;51.716;8.790;2024-03-08T01:15:17;40.53;;;20.57;;
17251;SDS011;8742;51.716;8.790;2024-03-08T01:17:44;43.30;;;20.40;;
17251;SDS011;8742;51.716;8.790;2024-03-08T01:20:11;42.33;;;20.83;;
17251;SDS011;8742;51.716;8.790;2024-03-08T01:22:38;45.93;;;19.80;;
17251;SDS011;8742;51.716;8.790;2024-03-08T01:25:06;40.80;;;19.67;;
17251;SDS011;8742;51.716;8.790;2024-03-08T01:27:34;48.83;;;21.07;;
17251;SDS011;8742;51.716;8.790;2024-03-08T01:30:02;42.23;;;20.13;;
17251;SDS011;8742;51.716;8.790;2024-03-08T01:32:30;40.73;;;19.43;;
17251;SDS011;8742;51.716;8.790;2024-03-08T01:34:58;37.17;;;19.10;;
17251;SDS011;8742;51.716;8.790;2024-03-08T01:37:25;44.20;;;20.83;;
17251;SDS011;8742;51.716;8.790;2024-03-08T01:39:52;48.73;;;19.57;;
17251;SDS011;8742;51.716;8.790;2024-03-08T01:42:19;42.73;;;20.73;;
17251;SDS011;8742;51.716;8.790;2024-03-08T01:44:47;39.63;;;20.60;;
17251;SDS011;8742;51.716;8.790;2024-03-08T01:47:14;40.33;;;19.80;;
17251;SDS011;8742;51.716;8.790;2024-03-08T01:49:43;39.73;;;20.47;;
17251;SDS011;8742;51.716;8.790;2024-03-08T01:52:10;41.57;;;20.20;;
17251;SDS011;8742;51.716;8.790;2024-03-08T01:54:37;39.00;;;18.87;;
17251;SDS011;8742;51.716;8.790;2024-03-08T01:57:06;42.63;;;19.57;;
17251;SDS011;8742;51.716;8.790;2024-03-08T01:59:33;40.07;;;20.23;;
17251;SDS011;8742;51.716;8.790;2024-03-08T02:02:01;39.13;;;19.80;;
17251;SDS011;8742;51.716;8.790;2024-03-08T02:04:28;45.97;;;21.10;;
17251;SDS011;8742;51.716;8.790;2024-03-08T02:06:58;38.63;;;19.53;;
17251;SDS011;8742;51.716;8.790;2024-03-08T02:09:25;48.40;;;21.53;;
17251;SDS011;8742;51.716;8.790;2024-03-08T02:11:52;40.07;;;19.37;;
17251;SDS011;8742;51.716;8.790;2024-03-08T02:14:19;39.97;;;20.57;;
17251;SDS011;8742;51.716;8.790;2024-03-08T02:16:46;45.80;;;20.03;;
17251;SDS011;8742;51.716;8.790;2024-03-08T02:19:13;44.43;;;19.73;;
17251;SDS011;8742;51.716;8.790;2024-03-08T02:21:41;50.97;;;21.10;;
17251;SDS011;8742;51.716;8.790;2024-03-08T02:24:08;47.93;;;21.47;;
17251;SDS011;8742;51.716;8.790;2024-03-08T02:26:35;47.60;;;20.27;;
17251;SDS011;8742;51.716;8.790;2024-03-08T02:29:02;51.23;;;21.60;;
17251;SDS011;8742;51.716;8.790;2024-03-08T02:31:30;43.47;;;21.50;;
17251;SDS011;8742;51.716;8.790;2024-03-08T02:33:57;46.07;;;20.60;;
17251;SDS011;8742;51.716;8.790;2024-03-08T02:36:24;48.47;;;21.43;;
17251;SDS011;8742;51.716;8.790;2024-03-08T02:38:52;47.00;;;21.13;;
17251;SDS011;8742;51.716;8.790;2024-03-08T02:41:20;44.33;;;21.17;;
17251;SDS011;8742;51.716;8.790;2024-03-08T02:43:47;47.03;;;22.57;;
17251;SDS011;8742;51.716;8.790;2024-03-08T02:46:15;43.17;;;20.03;;
17251;SDS011;8742;51.716;8.790;2024-03-08T02:48:42;44.37;;;20.70;;
17251;SDS011;8742;51.716;8.790;2024-03-08T02:51:09;43.07;;;21.10;;
17251;SDS011;8742;51.716;8.790;2024-03-08T02:53:36;43.27;;;21.13;;
17251;SDS011;8742;51.716;8.790;2024-03-08T02:56:05;44.47;;;21.40;;
17251;SDS011;8742;51.716;8.790;2024-03-08T02:58:33;50.77;;;22.20;;
17251;SDS011;8742;51.716;8.790;2024-03-08T03:01:00;47.40;;;22.07;;
17251;SDS011;8742;51.716;8.790;2024-03-08T03:03:27;43.53;;;21.63;;
17251;SDS011;8742;51.716;8.790;2024-03-08T03:05:54;47.80;;;22.17;;
17251;SDS011;8742;51.716;8.790;2024-03-08T03:08:21;46.73;;;23.13;;
17251;SDS011;8742;51.716;8.790;2024-03-08T03:10:48;43.83;;;21.70;;
17251;SDS011;8742;51.716;8.790;2024-03-08T03:13:17;45.60;;;22.63;;
17251;SDS011;8742;51.716;8.790;2024-03-08T03:15:45;58.27;;;23.67;;
17251;SDS011;8742;51.716;8.790;2024-03-08T03:18:12;45.90;;;22.70;;
17251;SDS011;8742;51.716;8.790;2024-03-08T03:20:40;45.03;;;22.07;;
17251;SDS011;8742;51.716;8.790;2024-03-08T03:23:07;46.90;;;22.43;;
17251;SDS011;8742;51.716;8.790;2024-03-08T03:25:38;47.03;;;22.60;;
17251;SDS011;8742;51.716;8.790;2024-03-08T03:28:06;46.77;;;22.60;;
17251;SDS011;8742;51.716;8.790;2024-03-08T03:30:37;51.90;;;23.47;;
17251;SDS011;8742;51.716;8.790;2024-03-08T03:33:04;49.27;;;22.80;;
17251;SDS011;8742;51.716;8.790;2024-03-08T03:35:32;52.30;;;24.40;;
17251;SDS011;8742;51.716;8.790;2024-03-08T03:37:59;48.37;;;23.57;;
17251;SDS011;8742;51.716;8.790;2024-03-08T03:40:31;51.43;;;22.50;;
17251;SDS011;8742;51.716;8.790;2024-03-08T03:42:58;51.13;;;23.50;;
17251;SDS011;8742;51.716;8.790;2024-03-08T03:45:25;51.13;;;22.90;;
17251;SDS011;8742;51.716;8.790;2024-03-08T03:47:54;53.53;;;23.57;;
17251;SDS011;8742;51.716;8.790;2024-03-08T03:50:21;47.93;;;23.40;;
17251;SDS011;8742;51.716;8.790;2024-03-08T03:52:48;49.30;;;22.30;;
17251;SDS011;8742;51.716;8.790;2024-03-08T03:55:15;45.53;;;22.17;;
17251;SDS011;8742;51.716;8.790;2024-03-08T03:57:43;47.93;;;22.07;;
17251;SDS011;8742;51.716;8.790;2024-03-08T04:00:11;50.20;;;23.67;;
17251;SDS011;8742;51.716;8.790;2024-03-08T04:02:38;48.63;;;23.57;;
17251;SDS011;8742;51.716;8.790;2024-03-08T04:05:08;50.87;;;22.93;;
17251;SDS011;8742;51.716;8.790;2024-03-08T04:07:36;50.10;;;22.00;;
17251;SDS011;8742;51.716;8.790;2024-03-08T04:10:04;50.13;;;21.10;;
17251;SDS011;8742;51.716;8.790;2024-03-08T04:12:32;50.13;;;22.73;;
17251;SDS011;8742;51.716;8.790;2024-03-08T04:14:59;50.83;;;23.13;;
17251;SDS011;8742;51.716;8.790;2024-03-08T04:17:26;48.20;;;22.83;;
17251;SDS011;8742;51.716;8.790;2024-03-08T04:19:53;48.23;;;23.53;;
17251;SDS011;8742;51.716;8.790;2024-03-08T04:22:21;51.20;;;23.63;;
17251;SDS011;8742;51.716;8.790;2024-03-08T04:24:48;53.80;;;24.63;;
17251;SDS011;8742;51.716;8.790;2024-03-08T04:27:14;50.57;;;23.77;;
17251;SDS011;8742;51.716;8.790;2024-03-08T04:29:41;54.23;;;22.33;;
17251;SDS011;8742;51.716;8.790;2024-03-08T04:32:08;50.33;;;22.73;;
17251;SDS011;8742;51.716;8.790;2024-03-08T04:34:36;54.67;;;23.83;;
17251;SDS011;8742;51.716;8.790;2024-03-08T04:37:03;55.73;;;24.17;;
17251;SDS011;8742;51.716;8.790;2024-03-08T04:39:32;52.60;;;23.63;;
17251;SDS011;8742;51.716;8.790;2024-03-08T04:41:59;48.37;;;22.97;;
17251;SDS011;8742;51.716;8.790;2024-03-08T04:44:29;56.30;;;25.27;;
17251;SDS011;8742;51.716;8.790;2024-03-08T04:46:56;49.33;;;24.03;;
17251;SDS011;8742;51.716;8.790;2024-03-08T04:49:23;53.50;;;23.00;;
17251;SDS011;8742;51.716;8.790;2024-03-08T04:51:50;54.97;;;23.97;;
17251;SDS011;8742;51.716;8.790;2024-03-08T04:54:17;49.60;;;23.70;;
17251;SDS011;8742;51.716;8.790;2024-03-08T04:56:45;51.67;;;23.33;;
17251;SDS011;8742;51.716;8.790;2024-03-08T04:59:12;49.23;;;22.67;;
17251;SDS011;8742;51.716;8.790;2024-03-08T05:01:39;52.90;;;23.57;;
17251;SDS011;8742;51.716;8.790;2024-03-08T05:04:06;54.17;;;22.70;;
17251;SDS011;8742;51.716;8.790;2024-03-08T05:06:33;55.00;;;23.40;;
17251;SDS011;8742;51.716;8.790;2024-03-08T05:08:59;47.63;;;22.17;;
17251;SDS011;8742;51.716;8.790;2024-03-08T05:11:31;49.73;;;23.70;;
17251;SDS011;8742;51.716;8.790;2024-03-08T05:13:59;47.53;;;23.23;;
17251;SDS011;8742;51.716;8.790;2024-03-08T05:16:26;54.60;;;24.20;;
17251;SDS011;8742;51.716;8.790;2024-03-08T05:18:53;55.10;;;23.93;;
17251;SDS011;8742;51.716;8.790;2024-03-08T05:21:21;55.07;;;22.93;;
17251;SDS011;8742;51.716;8.790;2024-03-08T05:23:48;54.10;;;22.40;;
17251;SDS011;8742;51.716;8.790;2024-03-08T05:26:16;50.30;;;23.37;;
17251;SDS011;8742;51.716;8.790;2024-03-08T05:28:52;50.03;;;23.90;;
17251;SDS011;8742;51.716;8.790;2024-03-08T05:31:21;51.57;;;22.10;;
17251;SDS011;8742;51.716;8.790;2024-03-08T05:33:48;53.33;;;23.93;;
17251;SDS011;8742;51.716;8.790;2024-03-08T05:36:15;47.00;;;22.80;;
17251;SDS011;8742;51.716;8.790;2024-03-08T05:38:42;49.87;;;22.33;;
17251;SDS011;8742;51.716;8.790;2024-03-08T05:41:21;51.60;;;23.53;;
17251;SDS011;8742;51.716;8.790;2024-03-08T05:43:56;50.73;;;22.83;;
17251;SDS011;8742;51.716;8.790;2024-03-08T05:46:24;50.70;;;23.93;;
17251;SDS011;8742;51.716;8.790;2024-03-08T05:48:51;52.00;;;23.73;;
17251;SDS011;8742;51.716;8.790;2024-03-08T05:51:19;50.73;;;23.73;;
17251;SDS011;8742;51.716;8.790;2024-03-08T05:53:47;58.50;;;23.90;;
17251;SDS011;8742;51.716;8.790;2024-03-08T05:56:13;51.60;;;23.47;;
17251;SDS011;8742;51.716;8.790;2024-03-08T05:58:40;51.50;;;23.63;;
17251;SDS011;8742;51.716;8.790;2024-03-08T06:01:07;54.60;;;24.43;;
17251;SDS011;8742;51.716;8.790;2024-03-08T06:03:38;52.30;;;23.57;;
17251;SDS011;8742;51.716;8.790;2024-03-08T06:06:10;49.67;;;23.43;;
17251;SDS011;8742;51.716;8.790;2024-03-08T06:08:37;52.43;;;23.87;;
17251;SDS011;8742;51.716;8.790;2024-03-08T06:11:04;47.63;;;22.87;;
17251;SDS011;8742;51.716;8.790;2024-03-08T06:13:32;49.10;;;23.17;;
17251;SDS011;8742;51.716;8.790;2024-03-08T06:15:59;51.10;;;22.77;;
17251;SDS011;8742;51.716;8.790;2024-03-08T06:18:28;55.97;;;23.83;;
17251;SDS011;8742;51.716;8.790;2024-03-08T06:20:57;57.87;;;24.67;;
17251;SDS011;8742;51.716;8.790;2024-03-08T06:23:23;53.10;;;25.10;;
17251;SDS011;8742;51.716;8.790;2024-03-08T06:25:52;49.77;;;22.17;;
17251;SDS011;8742;51.716;8.790;2024-03-08T06:28:19;57.07;;;24.73;;
17251;SDS011;8742;51.716;8.790;2024-03-08T06:30:46;51.10;;;23.95;;
17251;SDS011;8742;51.716;8.790;2024-03-08T06:33:13;47.23;;;23.13;;
17251;SDS011;8742;51.716;8.790;2024-03-08T06:35:41;52.57;;;23.37;;
17251;SDS011;8742;51.716;8.790;2024-03-08T06:38:09;57.47;;;24.00;;
17251;SDS011;8742;51.716;8.790;2024-03-08T06:40:36;54.13;;;24.73;;
17251;SDS011;8742;51.716;8.790;2024-03-08T06:43:03;56.03;;;24.77;;
17251;SDS011;8742;51.716;8.790;2024-03-08T06:45:30;51.53;;;24.83;;
17251;SDS011;8742;51.716;8.790;2024-03-08T06:47:57;52.93;;;24.57;;
17251;SDS011;8742;51.716;8.790;2024-03-08T06:50:25;58.17;;;24.50;;
17251;SDS011;8742;51.716;8.790;2024-03-08T06:52:52;57.30;;;24.70;;
17251;SDS011;8742;51.716;8.790;2024-03-08T06:55:20;52.13;;;24.27;;
17251;SDS011;8742;51.716;8.790;2024-03-08T06:57:47;54.80;;;23.63;;
17251;SDS011;8742;51.716;8.790;2024-03-08T07:00:14;48.50;;;23.47;;
17251;SDS011;8742;51.716;8.790;2024-03-08T07:02:43;49.07;;;23.07;;
17251;SDS011;8742;51.716;8.790;2024-03-08T07:05:11;51.07;;;24.80;;
17251;SDS011;8742;51.716;8.790;2024-03-08T07:07:38;47.83;;;20.60;;
17251;SDS011;8742;51.716;8.790;2024-03-08T07:10:06;55.50;;;24.57;;
17251;SDS011;8742;51.716;8.790;2024-03-08T07:12:37;51.80;;;24.07;;
17251;SDS011;8742;51.716;8.790;2024-03-08T07:15:04;56.73;;;25.60;;
17251;SDS011;8742;51.716;8.790;2024-03-08T07:17:32;49.70;;;22.30;;
17251;SDS011;8742;51.716;8.790;2024-03-08T07:20:00;52.00;;;23.70;;
17251;SDS011;8742;51.716;8.790;2024-03-08T07:22:32;49.47;;;22.90;;
17251;SDS011;8742;51.716;8.790;2024-03-08T07:24:59;47.67;;;23.43;;
17251;SDS011;8742;51.716;8.790;2024-03-08T07:27:46;52.37;;;24.00;;
17251;SDS011;8742;51.716;8.790;2024-03-08T07:30:13;48.40;;;23.13;;
17251;SDS011;8742;51.716;8.790;2024-03-08T07:33:02;45.20;;;22.50;;
17251;SDS011;8742;51.716;8.790;2024-03-08T07:35:29;45.70;;;22.20;;
17251;SDS011;8742;51.716;8.790;2024-03-08T07:37:57;49.00;;;24.13;;
17251;SDS011;8742;51.716;8.790;2024-03-08T07:40:25;52.30;;;22.23;;
17251;SDS011;8742;51.716;8.790;2024-03-08T07:42:53;45.03;;;21.90;;
17251;SDS011;8742;51.716;8.790;2024-03-08T07:45:20;48.53;;;23.30;;
17251;SDS011;8742;51.716;8.790;2024-03-08T07:47:47;46.07;;;22.70;;
17251;SDS011;8742;51.716;8.790;2024-03-08T07:50:14;43.83;;;21.93;;
17251;SDS011;8742;51.716;8.790;2024-03-08T07:52:41;50.57;;;21.77;;
17251;SDS011;8742;51.716;8.790;2024-03-08T07:55:08;40.83;;;20.43;;
17251;SDS011;8742;51.716;8.790;2024-03-08T07:57:36;46.27;;;22.80;;
17251;SDS011;8742;51.716;8.790;2024-03-08T08:00:06;49.97;;;22.90;;
17251;SDS011;8742;51.716;8.790;2024-03-08T08:02:33;44.37;;;21.37;;
17251;SDS011;8742;51.716;8.790;2024-03-08T08:05:01;42.47;;;21.17;;
17251;SDS011;8742;51.716;8.790;2024-03-08T08:07:29;44.73;;;22.33;;
17251;SDS011;8742;51.716;8.790;2024-03-08T08:09:56;39.27;;;20.57;;
17251;SDS011;8742;51.716;8.790;2024-03-08T08:12:23;46.90;;;22.53;;
17251;SDS011;8742;51.716;8.790;2024-03-08T08:14:50;43.90;;;22.23;;
17251;SDS011;8742;51.716;8.790;2024-03-08T08:17:18;45.97;;;21.53;;
17251;SDS011;8742;51.716;8.790;2024-03-08T08:19:45;45.13;;;21.87;;
17251;SDS011;8742;51.716;8.790;2024-03-08T08:22:12;44.80;;;22.77;;
17251;SDS011;8742;51.716;8.790;2024-03-08T08:24:39;39.67;;;17.53;;
17251;SDS011;8742;51.716;8.790;2024-03-08T08:27:06;43.30;;;20.87;;
17251;SDS011;8742;51.716;8.790;2024-03-08T08:29:34;41.03;;;20.63;;
17251;SDS011;8742;51.716;8.790;2024-03-08T08:32:01;41.47;;;21.87;;
17251;SDS011;8742;51.716;8.790;2024-03-08T08:34:30;39.03;;;19.43;;
17251;SDS011;8742;51.716;8.790;2024-03-08T08:36:57;43.67;;;22.17;;
17251;SDS011;8742;51.716;8.790;2024-03-08T08:39:24;48.07;;;20.83;;
17251;SDS011;8742;51.716;8.790;2024-03-08T08:41:51;43.97;;;21.50;;
17251;SDS011;8742;51.716;8.790;2024-03-08T08:44:17;38.77;;;19.77;;
17251;SDS011;8742;51.716;8.790;2024-03-08T08:46:44;40.67;;;20.87;;
17251;SDS011;8742;51.716;8.790;2024-03-08T08:49:11;36.13;;;19.70;;
17251;SDS011;8742;51.716;8.790;2024-03-08T08:51:41;38.90;;;19.57;;
17251;SDS011;8742;51.716;8.790;2024-03-08T08:54:08;33.83;;;20.07;;
17251;SDS011;8742;51.716;8.790;2024-03-08T08:56:34;38.03;;;20.30;;
17251;SDS011;8742;51.716;8.790;2024-03-08T08:59:02;34.73;;;19.83;;
17251;SDS011;8742;51.716;8.790;2024-03-08T09:01:29;37.80;;;19.87;;
17251;SDS011;8742;51.716;8.790;2024-03-08T09:03:56;37.97;;;19.90;;
17251;SDS011;8742;51.716;8.790;2024-03-08T09:06:23;34.40;;;19.50;;
17251;SDS011;8742;51.716;8.790;2024-03-08T09:08:51;38.13;;;19.33;;
17251;SDS011;8742;51.716;8.790;2024-03-08T09:11:18;35.30;;;19.60;;
17251;SDS011;8742;51.716;8.790;2024-03-08T09:13:45;34.60;;;19.20;;
17251;SDS011;8742;51.716;8.790;2024-03-08T09:16:12;35.77;;;20.63;;
17251;SDS011;8742;51.716;8.790;2024-03-08T09:18:39;34.37;;;19.00;;
17251;SDS011;8742;51.716;8.790;2024-03-08T09:21:07;39.33;;;20.60;;
17251;SDS011;8742;51.716;8.790;2024-03-08T09:23:35;34.13;;;19.80;;
17251;SDS011;8742;51.716;8.790;2024-03-08T09:26:03;34.80;;;20.83;;
17251;SDS011;8742;51.716;8.790;2024-03-08T09:28:31;32.60;;;18.80;;
17251;SDS011;8742;51.716;8.790;2024-03-08T09:30:58;32.37;;;20.20;;
17251;SDS011;8742;51.716;8.790;2024-03-08T09:33:26;34.63;;;19.30;;
17251;SDS011;8742;51.716;8.790;2024-03-08T09:35:54;30.27;;;17.67;;
17251;SDS011;8742;51.716;8.790;2024-03-08T09:38:22;32.17;;;19.20;;
17251;SDS011;8742;51.716;8.790;2024-03-08T09:40:50;31.90;;;19.17;;
17251;SDS011;8742;51.716;8.790;2024-03-08T09:43:19;34.03;;;18.97;;
17251;SDS011;8742;51.716;8.790;2024-03-08T09:45:46;37.17;;;20.33;;
17251;SDS011;8742;51.716;8.790;2024-03-08T09:48:16;37.43;;;18.57;;
17251;SDS011;8742;51.716;8.790;2024-03-08T09:50:45;32.60;;;19.70;;
17251;SDS011;8742;51.716;8.790;2024-03-08T09:53:12;33.73;;;18.90;;
17251;SDS011;8742;51.716;8.790;2024-03-08T09:55:39;29.87;;;19.23;;
17251;SDS011;8742;51.716;8.790;2024-03-08T09:58:09;28.73;;;18.17;;
17251;SDS011;8742;51.716;8.790;2024-03-08T10:01:02;25.57;;;15.90;;
17251;SDS011;8742;51.716;8.790;2024-03-08T10:03:29;30.00;;;18.07;;
17251;SDS011;8742;51.716;8.790;2024-03-08T10:05:57;32.97;;;19.20;;
17251;SDS011;8742;51.716;8.790;2024-03-08T10:08:25;27.90;;;18.90;;
17251;SDS011;8742;51.716;8.790;2024-03-08T10:10:52;33.40;;;19.73;;
17251;SDS011;8742;51.716;8.790;2024-03-08T10:13:19;29.67;;;19.00;;
17251;SDS011;8742;51.716;8.790;2024-03-08T10:15:47;35.60;;;19.07;;
17251;SDS011;8742;51.716;8.790;2024-03-08T10:18:15;29.70;;;18.27;;
17251;SDS011;8742;51.716;8.790;2024-03-08T10:20:42;33.67;;;18.67;;
17251;SDS011;8742;51.716;8.790;2024-03-08T10:23:09;32.03;;;17.67;;
17251;SDS011;8742;51.716;8.790;2024-03-08T10:25:36;27.93;;;18.70;;
17251;SDS011;8742;51.716;8.790;2024-03-08T10:28:04;36.40;;;18.83;;
17251;SDS011;8742;51.716;8.790;2024-03-08T10:30:31;29.97;;;18.43;;
17251;SDS011;8742;51.716;8.790;2024-03-08T10:32:58;31.60;;;17.27;;
17251;SDS011;8742;51.716;8.790;2024-03-08T10:35:26;30.27;;;17.43;;
17251;SDS011;8742;51.716;8.790;2024-03-08T10:37:53;29.10;;;18.87;;
17251;SDS011;8742;51.716;8.790;2024-03-08T10:40:24;29.43;;;18.53;;
17251;SDS011;8742;51.716;8.790;2024-03-08T10:42:52;27.47;;;17.03;;
17251;SDS011;8742;51.716;8.790;2024-03-08T10:45:23;33.70;;;19.17;;
17251;SDS011;8742;51.716;8.790;2024-03-08T10:48:01;28.80;;;17.60;;
17251;SDS011;8742;51.716;8.790;2024-03-08T10:50:54;24.37;;;12.77;;
17251;SDS011;8742;51.716;8.790;2024-03-08T10:53:23;29.30;;;17.03;;
17251;SDS011;8742;51.716;8.790;2024-03-08T10:55:53;27.03;;;17.40;;
17251;SDS011;8742;51.716;8.790;2024-03-08T10:58:20;25.07;;;16.70;;
17251;SDS011;8742;51.716;8.790;2024-03-08T11:00:48;26.43;;;17.43;;
17251;SDS011;8742;51.716;8.790;2024-03-08T11:06:14;26.67;;;16.63;;
17251;SDS011;8742;51.716;8.790;2024-03-08T11:08:42;27.83;;;16.33;;
17251;SDS011;8742;51.716;8.790;2024-03-08T11:11:23;28.60;;;17.33;;
17251;SDS011;8742;51.716;8.790;2024-03-08T11:13:52;25.17;;;16.93;;
17251;SDS011;8742;51.716;8.790;2024-03-08T11:19:23;27.43;;;16.97;;
17251;SDS011;8742;51.716;8.790;2024-03-08T11:22:03;26.60;;;16.57;;
17251;SDS011;8742;51.716;8.790;2024-03-08T11:24:39;23.53;;;16.13;;
17251;SDS011;8742;51.716;8.790;2024-03-08T11:27:06;29.47;;;17.77;;
17251;SDS011;8742;51.716;8.790;2024-03-08T11:29:36;27.87;;;17.87;;
17251;SDS011;8742;51.716;8.790;2024-03-08T11:32:05;29.53;;;18.63;;
17251;SDS011;8742;51.716;8.790;2024-03-08T11:34:34;27.30;;;17.57;;
17251;SDS011;8742;51.716;8.790;2024-03-08T11:37:04;24.53;;;17.37;;
17251;SDS011;8742;51.716;8.790;2024-03-08T11:39:34;29.67;;;17.73;;
17251;SDS011;8742;51.716;8.790;2024-03-08T11:42:03;29.90;;;19.00;;
17251;SDS011;8742;51.716;8.790;2024-03-08T11:44:30;28.50;;;18.53;;
17251;SDS011;8742;51.716;8.790;2024-03-08T11:46:57;32.27;;;18.63;;
17251;SDS011;8742;51.716;8.790;2024-03-08T11:49:24;27.27;;;19.17;;
17251;SDS011;8742;51.716;8.790;2024-03-08T11:51:52;28.57;;;18.73;;
17251;SDS011;8742;51.716;8.790;2024-03-08T11:54:20;26.97;;;16.93;;
17251;SDS011;8742;51.716;8.790;2024-03-08T11:56:48;26.63;;;17.30;;
17251;SDS011;8742;51.716;8.790;2024-03-08T11:59:18;28.23;;;17.87;;
17251;SDS011;8742;51.716;8.790;2024-03-08T12:01:56;32.53;;;18.27;;
17251;SDS011;8742;51.716;8.790;2024-03-08T12:04:28;28.47;;;18.00;;
17251;SDS011;8742;51.716;8.790;2024-03-08T12:06:56;30.33;;;17.80;;
17251;SDS011;8742;51.716;8.790;2024-03-08T12:09:26;28.80;;;19.23;;
17251;SDS011;8742;51.716;8.790;2024-03-08T12:11:52;30.33;;;19.07;;
17251;SDS011;8742;51.716;8.790;2024-03-08T12:14:20;31.20;;;17.47;;
17251;SDS011;8742;51.716;8.790;2024-03-08T12:16:48;27.40;;;17.50;;
17251;SDS011;8742;51.716;8.790;2024-03-08T12:19:17;31.03;;;17.97;;
17251;SDS011;8742;51.716;8.790;2024-03-08T12:21:44;28.80;;;17.47;;
17251;SDS011;8742;51.716;8.790;2024-03-08T12:24:14;31.33;;;18.00;;
17251;SDS011;8742;51.716;8.790;2024-03-08T12:26:45;26.30;;;18.13;;
17251;SDS011;8742;51.716;8.790;2024-03-08T12:29:14;29.23;;;18.63;;
17251;SDS011;8742;51.716;8.790;2024-03-08T12:31:43;28.10;;;17.77;;
17251;SDS011;8742;51.716;8.790;2024-03-08T12:34:11;23.17;;;17.30;;
17251;SDS011;8742;51.716;8.790;2024-03-08T12:36:43;25.47;;;17.17;;
17251;SDS011;8742;51.716;8.790;2024-03-08T12:39:15;30.83;;;17.50;;
17251;SDS011;8742;51.716;8.790;2024-03-08T12:41:42;27.97;;;16.73;;
17251;SDS011;8742;51.716;8.790;2024-03-08T12:44:11;22.87;;;16.00;;
17251;SDS011;8742;51.716;8.790;2024-03-08T12:46:38;24.03;;;16.07;;
17251;SDS011;8742;51.716;8.790;2024-03-08T12:49:07;25.37;;;16.87;;
17251;SDS011;8742;51.716;8.790;2024-03-08T12:51:35;22.50;;;15.53;;
17251;SDS011;8742;51.716;8.790;2024-03-08T12:54:03;26.60;;;17.20;;
17251;SDS011;8742;51.716;8.790;2024-03-08T12:56:32;22.87;;;16.13;;
17251;SDS011;8742;51.716;8.790;2024-03-08T12:59:00;24.47;;;16.47;;
17251;SDS011;8742;51.716;8.790;2024-03-08T13:01:29;24.70;;;16.73;;
17251;SDS011;8742;51.716;8.790;2024-03-08T13:03:58;25.87;;;16.30;;
17251;SDS011;8742;51.716;8.790;2024-03-08T13:06:25;26.47;;;17.53;;
17251;SDS011;8742;51.716;8.790;2024-03-08T13:08:53;28.57;;;17.43;;
17251;SDS011;8742;51.716;8.790;2024-03-08T13:11:21;24.40;;;16.63;;
17251;SDS011;8742;51.716;8.790;2024-03-08T13:13:48;23.23;;;16.87;;
17251;SDS011;8742;51.716;8.790;2024-03-08T13:16:16;27.33;;;17.20;;
17251;SDS011;8742;51.716;8.790;2024-03-08T13:18:45;26.23;;;17.33;;
17251;SDS011;8742;51.716;8.790;2024-03-08T13:21:14;25.77;;;16.20;;
17251;SDS011;8742;51.716;8.790;2024-03-08T13:23:44;26.87;;;16.43;;
17251;SDS011;8742;51.716;8.790;2024-03-08T13:26:14;25.10;;;16.57;;
17251;SDS011;8742;51.716;8.790;2024-03-08T13:28:42;28.80;;;17.53;;
17251;SDS011;8742;51.716;8.790;2024-03-08T13:31:09;25.87;;;17.07;;
17251;SDS011;8742;51.716;8.790;2024-03-08T13:33:36;24.07;;;17.10;;
17251;SDS011;8742;51.716;8.790;2024-03-08T13:36:06;29.07;;;16.87;;
17251;SDS011;8742;51.716;8.790;2024-03-08T13:38:40;25.93;;;16.27;;
17251;SDS011;8742;51.716;8.790;2024-03-08T13:41:08;21.83;;;15.93;;
17251;SDS011;8742;51.716;8.790;2024-03-08T13:43:36;26.37;;;17.37;;
17251;SDS011;8742;51.716;8.790;2024-03-08T13:46:03;24.10;;;15.50;;
17251;SDS011;8742;51.716;8.790;2024-03-08T13:48:32;19.57;;;14.80;;
17251;SDS011;8742;51.716;8.790;2024-03-08T13:50:59;33.17;;;16.13;;
17251;SDS011;8742;51.716;8.790;2024-03-08T13:53:27;24.23;;;15.40;;
17251;SDS011;8742;51.716;8.790;2024-03-08T13:55:54;25.73;;;15.53;;
17251;SDS011;8742;51.716;8.790;2024-03-08T13:58:21;23.13;;;14.50;;
17251;SDS011;8742;51.716;8.790;2024-03-08T14:00:49;21.07;;;14.33;;
17251;SDS011;8742;51.716;8.790;2024-03-08T14:03:16;25.30;;;15.30;;
17251;SDS011;8742;51.716;8.790;2024-03-08T14:05:43;23.87;;;15.10;;
17251;SDS011;8742;51.716;8.790;2024-03-08T14:08:11;22.77;;;15.40;;
17251;SDS011;8742;51.716;8.790;2024-03-08T14:10:40;26.37;;;15.30;;
17251;SDS011;8742;51.716;8.790;2024-03-08T14:13:07;22.20;;;15.17;;
17251;SDS011;8742;51.716;8.790;2024-03-08T14:15:36;25.95;;;15.80;;
17251;SDS011;8742;51.716;8.790;2024-03-08T14:18:07;28.10;;;15.18;;
17251;SDS011;8742;51.716;8.790;2024-03-08T14:20:34;23.10;;;15.60;;
17251;SDS011;8742;51.716;8.790;2024-03-08T14:23:01;26.38;;;15.05;;
17251;SDS011;8742;51.716;8.790;2024-03-08T14:25:31;23.77;;;15.63;;
17251;SDS011;8742;51.716;8.790;2024-03-08T14:27:59;24.53;;;16.37;;
17251;SDS011;8742;51.716;8.790;2024-03-08T14:30:29;22.80;;;16.08;;
17251;SDS011;8742;51.716;8.790;2024-03-08T14:33:00;24.58;;;15.40;;
17251;SDS011;8742;51.716;8.790;2024-03-08T14:35:27;25.73;;;16.10;;
17251;SDS011;8742;51.716;8.790;2024-03-08T14:37:55;28.40;;;16.10;;
17251;SDS011;8742;51.716;8.790;2024-03-08T14:40:23;22.67;;;15.17;;
17251;SDS011;8742;51.716;8.790;2024-03-08T14:42:51;25.87;;;16.40;;
17251;SDS011;8742;51.716;8.790;2024-03-08T14:45:19;24.80;;;15.33;;